Humidity-temperature Sensor

Selected Measurement Type: Relative Humidity

 
Relative Humidity [%]     6 entries per hour
Showing data from 9/1/2020 (04:40:00 Z) to 8/31/2020 (00:01:00 Z)
Previous Next [ Day | 3-Days | 7-Days ]
First Last
Prev [ Day | 3-Days | 7-Days ] Next
First Last

Start Time:     :
End Time:     :     
Time (in GMT) :00 :50 :40 :30 :20 :10
Previous Next [ Day | 3-Days | 7-Days ]
First Last
Prev [ Day | 3-Days | 7-Days ] Next
First Last


123 => good data
MM => data is determined as missing
-- => data not received/configured
Back to Top Back to Top
9/1/2020 05:00 to 4:10 -- -- 80.44 80.03 81.28 81.12
9/1/2020 04:00 to 3:10 79.73 81.52 82.04 82.11 83.13 82.19
9/1/2020 03:00 to 2:10 82.63 82.97 82.87 84.56 83.39 84.58
9/1/2020 02:00 to 1:10 86.27 87.88 86.63 85.50 84.64 85.93
9/1/2020 01:00 to 0:10 85.12 85.36 85.83 87.70 88.48 87.41
9/1/2020 00:00 to 23:10 86.65 87.70 86.57 86.01 86.07 85.56
8/31/2020 23:00 to 22:10 85.34 85.83 85.91 87.29 88.02 87.74
8/31/2020 22:00 to 21:10 85.08 81.58 80.94 81.52 80.96 80.38
8/31/2020 21:00 to 20:10 80.17 80.56 79.97 80.80 80.92 80.96
8/31/2020 20:00 to 19:10 81.50 81.92 81.98 81.64 82.15 82.69
8/31/2020 19:00 to 18:10 82.33 82.39 82.37 82.99 81.88 81.56
8/31/2020 18:00 to 17:10 81.86 81.04 83.27 82.79 83.85 81.96
8/31/2020 17:00 to 16:10 81.70 81.00 80.44 81.78 80.68 80.15
8/31/2020 16:00 to 15:10 81.88 81.96 82.95 81.40 82.00 82.21
8/31/2020 15:00 to 14:10 81.22 81.60 80.64 80.88 81.84 85.32
8/31/2020 14:00 to 13:10 84.42 84.48 83.94 83.96 83.85 83.67
8/31/2020 13:00 to 12:10 85.34 85.60 84.46 85.52 86.89 82.79
8/31/2020 12:00 to 11:10 81.10 81.58 80.36 80.78 79.85 79.85
8/31/2020 11:00 to 10:10 82.55 83.21 82.79 82.09 81.86 80.88
8/31/2020 10:00 to 9:10 81.52 81.72 82.23 80.86 81.70 82.00
8/31/2020 09:00 to 8:10 82.04 81.24 82.39 82.23 81.64 82.43
8/31/2020 08:00 to 7:10 81.32 82.07 82.27 82.43 81.50 81.82
8/31/2020 07:00 to 6:10 81.96 80.84 79.73 79.81 80.56 79.81
8/31/2020 06:00 to 5:10 80.32 80.17 80.21 80.24 79.33 80.64
8/31/2020 05:00 to 4:10 79.51 79.61 79.89 80.86 80.03 80.50
8/31/2020 04:00 to 3:10 79.37 80.58 80.21 80.32 80.76 80.03
8/31/2020 03:00 to 2:10 80.72 80.90 82.19 80.60 81.34 80.64
8/31/2020 02:00 to 1:10 81.76 80.76 80.26 80.82 80.80 81.00
8/31/2020 01:00 to 0:10 81.90 81.84 82.81 81.46 81.58 82.53